sensor_id;sensor_type;location;lat;lon;timestamp;temperature;humidity
66156;DHT22;52957;50.848;20.656;2023-12-22T00:00:04;27;78
66156;DHT22;52957;50.848;20.656;2023-12-22T00:15:04;27;78
66156;DHT22;52957;50.848;20.656;2023-12-22T00:30:11;27;78
66156;DHT22;52957;50.848;20.656;2023-12-22T00:45:04;27;78
66156;DHT22;52957;50.848;20.656;2023-12-22T01:00:05;27;78
66156;DHT22;52957;50.848;20.656;2023-12-22T01:15:01;27;78
66156;DHT22;52957;50.848;20.656;2023-12-22T01:30:08;27;78
66156;DHT22;52957;50.848;20.656;2023-12-22T01:45:07;27;78
66156;DHT22;52957;50.848;20.656;2023-12-22T02:00:09;27;78
66156;DHT22;52957;50.848;20.656;2023-12-22T02:15:03;27;77
66156;DHT22;52957;50.848;20.656;2023-12-22T02:30:24;27;77
66156;DHT22;52957;50.848;20.656;2023-12-22T02:45:06;27;77
66156;DHT22;52957;50.848;20.656;2023-12-22T03:00:06;27;77
66156;DHT22;52957;50.848;20.656;2023-12-22T03:15:09;26.99;76
66156;DHT22;52957;50.848;20.656;2023-12-22T03:30:11;26.99;76
66156;DHT22;52957;50.848;20.656;2023-12-22T03:45:08;26.99;76
66156;DHT22;52957;50.848;20.656;2023-12-22T04:00:03;26.99;76
66156;DHT22;52957;50.848;20.656;2023-12-22T04:15:06;27.01;77
66156;DHT22;52957;50.848;20.656;2023-12-22T04:30:06;27.01;77
66156;DHT22;52957;50.848;20.656;2023-12-22T04:45:05;27.01;77
66156;DHT22;52957;50.848;20.656;2023-12-22T05:00:10;27.01;77
66156;DHT22;52957;50.848;20.656;2023-12-22T05:15:02;27;78
66156;DHT22;52957;50.848;20.656;2023-12-22T05:30:07;27;78
66156;DHT22;52957;50.848;20.656;2023-12-22T05:45:02;27;77
66156;DHT22;52957;50.848;20.656;2023-12-22T06:00:04;27;77
66156;DHT22;52957;50.848;20.656;2023-12-22T06:15:10;26;79
66156;DHT22;52957;50.848;20.656;2023-12-22T06:30:13;26;79
66156;DHT22;52957;50.848;20.656;2023-12-22T06:45:02;26;79
66156;DHT22;52957;50.848;20.656;2023-12-22T07:00:04;26;79
66156;DHT22;52957;50.848;20.656;2023-12-22T07:15:08;26;78
66156;DHT22;52957;50.848;20.656;2023-12-22T07:30:05;26;78
66156;DHT22;52957;50.848;20.656;2023-12-22T07:45:07;27;78
66156;DHT22;52957;50.848;20.656;2023-12-22T08:00:07;27;78
66156;DHT22;52957;50.848;20.656;2023-12-22T08:15:07;27;78
66156;DHT22;52957;50.848;20.656;2023-12-22T08:30:11;27;78
66156;DHT22;52957;50.848;20.656;2023-12-22T08:45:01;27;78
66156;DHT22;52957;50.848;20.656;2023-12-22T09:00:10;27;78
66156;DHT22;52957;50.848;20.656;2023-12-22T09:15:05;27;78
66156;DHT22;52957;50.848;20.656;2023-12-22T09:30:10;27;78
66156;DHT22;52957;50.848;20.656;2023-12-22T09:45:12;27;78
66156;DHT22;52957;50.848;20.656;2023-12-22T10:00:07;27;78
66156;DHT22;52957;50.848;20.656;2023-12-22T10:15:08;27;78
66156;DHT22;52957;50.848;20.656;2023-12-22T10:30:10;27;78
66156;DHT22;52957;50.848;20.656;2023-12-22T10:45:01;27;78
66156;DHT22;52957;50.848;20.656;2023-12-22T11:00:06;27;78
66156;DHT22;52957;50.848;20.656;2023-12-22T11:15:07;27;77
66156;DHT22;52957;50.848;20.656;2023-12-22T11:30:16;27;77
66156;DHT22;52957;50.848;20.656;2023-12-22T11:45:03;27;76
66156;DHT22;52957;50.848;20.656;2023-12-22T12:00:06;27;76
66156;DHT22;52957;50.848;20.656;2023-12-22T12:15:13;27;78
66156;DHT22;52957;50.848;20.656;2023-12-22T12:30:16;27;78
66156;DHT22;52957;50.848;20.656;2023-12-22T12:45:11;27;76
66156;DHT22;52957;50.848;20.656;2023-12-22T13:00:06;27;76
66156;DHT22;52957;50.848;20.656;2023-12-22T13:15:05;27;76
66156;DHT22;52957;50.848;20.656;2023-12-22T13:30:07;27;76
66156;DHT22;52957;50.848;20.656;2023-12-22T13:45:02;27;76
66156;DHT22;52957;50.848;20.656;2023-12-22T14:00:24;27;76
66156;DHT22;52957;50.848;20.656;2023-12-22T14:15:02;27;76
66156;DHT22;52957;50.848;20.656;2023-12-22T14:30:10;27;76
66156;DHT22;52957;50.848;20.656;2023-12-22T14:45:08;27;75
66156;DHT22;52957;50.848;20.656;2023-12-22T15:00:04;27;75
66156;DHT22;52957;50.848;20.656;2023-12-22T15:15:05;27;75
66156;DHT22;52957;50.848;20.656;2023-12-22T15:30:03;27;75
66156;DHT22;52957;50.848;20.656;2023-12-22T15:45:03;27;75
66156;DHT22;52957;50.848;20.656;2023-12-22T16:00:04;27;75
66156;DHT22;52957;50.848;20.656;2023-12-22T16:15:10;27;74
66156;DHT22;52957;50.848;20.656;2023-12-22T16:30:03;27;74
66156;DHT22;52957;50.848;20.656;2023-12-22T16:45:03;27;74
66156;DHT22;52957;50.848;20.656;2023-12-22T17:00:06;27;74
66156;DHT22;52957;50.848;20.656;2023-12-22T17:15:09;27;74
66156;DHT22;52957;50.848;20.656;2023-12-22T17:30:06;27;74
66156;DHT22;52957;50.848;20.656;2023-12-22T17:45:09;27;74
66156;DHT22;52957;50.848;20.656;2023-12-22T18:00:09;27;74
66156;DHT22;52957;50.848;20.656;2023-12-22T18:30:06;27;76
66156;DHT22;52957;50.848;20.656;2023-12-22T19:00:06;27;76
66156;DHT22;52957;50.848;20.656;2023-12-22T19:30:10;27;78
66156;DHT22;52957;50.848;20.656;2023-12-22T20:00:08;27;78
66156;DHT22;52957;50.848;20.656;2023-12-22T20:30:05;27;81
66156;DHT22;52957;50.848;20.656;2023-12-22T21:00:10;27;81
66156;DHT22;52957;50.848;20.656;2023-12-22T21:30:10;27;81
66156;DHT22;52957;50.848;20.656;2023-12-22T21:45:05;27;81
66156;DHT22;52957;50.848;20.656;2023-12-22T22:00:09;27;81
66156;DHT22;52957;50.848;20.656;2023-12-22T22:15:03;27;80
66156;DHT22;52957;50.848;20.656;2023-12-22T22:30:03;27;80
66156;DHT22;52957;50.848;20.656;2023-12-22T22:45:05;27;80
66156;DHT22;52957;50.848;20.656;2023-12-22T23:00:07;27;80
66156;DHT22;52957;50.848;20.656;2023-12-22T23:15:06;26;80
66156;DHT22;52957;50.848;20.656;2023-12-22T23:30:05;26;80
66156;DHT22;52957;50.848;20.656;2023-12-22T23:45:07;26;80
